Time;durP1;ratioP1;P1;durP2;ratioP2;P2;SDS_P1;SDS_P2;PMS_P1;PMS_P2;Temp;Humidity;BMP_temperature;BMP_pressure;BME280_temperature;BME280_humidity;BME280_pressure;Samples;Min_cycle;Max_cycle;Signal;HPM_P1;HPM_P2
2022/03/26 00:00:21;;;;;;;15.32;10.57;;;10.50;83.20;;;;;;5045361;28;20028;-40
2022/03/26 00:02:47;;;;;;;19.13;11.85;;;10.50;83.30;;;;;;5044024;28;20029;-38
2022/03/26 00:05:13;;;;;;;23.65;12.43;;;10.50;83.40;;;;;;5044587;28;20373;-41
2022/03/26 00:07:38;;;;;;;20.05;11.23;;;10.40;83.50;;;;;;5044820;28;20380;-39
2022/03/26 00:10:05;;;;;;;25.48;11.75;;;10.40;83.50;;;;;;5043527;28;20494;-41
2022/03/26 00:12:31;;;;;;;18.98;11.65;;;10.40;83.70;;;;;;5045247;28;20117;-40
2022/03/26 00:14:58;;;;;;;20.33;11.70;;;10.30;83.70;;;;;;5044685;28;20104;-41
2022/03/26 00:17:24;;;;;;;21.60;11.57;;;10.30;83.90;;;;;;5044795;28;20032;-41
2022/03/26 00:19:49;;;;;;;20.58;11.70;;;10.30;83.80;;;;;;5044074;28;20029;-41
2022/03/26 00:22:15;;;;;;;19.10;11.77;;;10.30;83.90;;;;;;5045233;28;20090;-40
2022/03/26 00:24:40;;;;;;;19.90;12.15;;;10.30;84.00;;;;;;5043774;28;20682;-42
2022/03/26 00:27:09;;;;;;;18.98;11.02;;;10.30;84.10;;;;;;5045297;28;20036;-42
2022/03/26 00:29:35;;;;;;;22.55;12.45;;;10.30;84.00;;;;;;5045056;28;20719;-42
2022/03/26 00:32:03;;;;;;;20.05;11.93;;;10.30;84.10;;;;;;5043363;28;20115;-42
2022/03/26 00:34:29;;;;;;;17.77;11.13;;;10.30;84.40;;;;;;5044595;28;20021;-41
2022/03/26 00:36:54;;;;;;;18.42;11.32;;;10.20;84.40;;;;;;5044586;28;20491;-41
2022/03/26 00:39:20;;;;;;;19.27;11.90;;;10.20;84.40;;;;;;5044302;28;20401;-42
2022/03/26 00:41:46;;;;;;;19.95;11.32;;;10.20;84.60;;;;;;5044576;28;20033;-41
2022/03/26 00:44:13;;;;;;;22.10;11.30;;;10.20;84.50;;;;;;5044810;28;20500;-41
2022/03/26 00:46:39;;;;;;;20.45;11.43;;;10.20;84.60;;;;;;5040441;28;20035;-40
2022/03/26 00:49:05;;;;;;;21.60;12.18;;;10.20;84.60;;;;;;5045729;28;20029;-42
2022/03/26 00:51:30;;;;;;;20.90;11.90;;;10.20;84.80;;;;;;5048532;28;20025;-40
2022/03/26 00:53:56;;;;;;;20.55;11.23;;;10.20;84.80;;;;;;5047341;28;20041;-41
2022/03/26 00:56:21;;;;;;;17.77;11.10;;;10.20;84.80;;;;;;5048198;28;20737;-41
2022/03/26 00:58:47;;;;;;;20.15;10.35;;;10.10;84.80;;;;;;5047460;28;20025;-43
2022/03/26 01:01:12;;;;;;;16.58;11.07;;;10.10;84.80;;;;;;5048012;28;20040;-40
2022/03/26 01:03:38;;;;;;;23.98;12.90;;;10.10;85.00;;;;;;5048462;28;20484;-40
2022/03/26 01:06:04;;;;;;;18.42;11.43;;;10.10;85.00;;;;;;5047453;28;20460;-42
2022/03/26 01:08:30;;;;;;;21.67;11.95;;;10.10;85.10;;;;;;5047916;28;20725;-43
2022/03/26 01:10:56;;;;;;;28.70;15.23;;;10.10;85.30;;;;;;5047234;28;20036;-41
2022/03/26 01:13:25;;;;;;;24.25;13.55;;;10.00;85.50;;;;;;5047450;28;20036;-42
2022/03/26 01:15:51;;;;;;;26.98;13.50;;;10.00;85.60;;;;;;5047244;28;20025;-41
2022/03/26 01:18:16;;;;;;;20.73;12.35;;;9.90;85.60;;;;;;5047699;28;20027;-40
2022/03/26 01:20:42;;;;;;;17.52;10.85;;;9.90;85.60;;;;;;5046395;28;20049;-42
2022/03/26 01:23:09;;;;;;;20.85;12.07;;;9.80;85.70;;;;;;5047597;28;20021;-41
2022/03/26 01:25:35;;;;;;;24.17;13.15;;;9.80;85.70;;;;;;5048378;28;20033;-42
2022/03/26 01:28:01;;;;;;;20.17;12.20;;;9.70;86.00;;;;;;5046650;28;20052;-43
2022/03/26 01:30:26;;;;;;;24.13;13.60;;;9.70;85.90;;;;;;5047684;28;20598;-42
2022/03/26 01:32:53;;;;;;;24.67;14.57;;;9.70;86.10;;;;;;5046684;28;20049;-43
2022/03/26 01:35:18;;;;;;;22.13;12.98;;;9.70;86.20;;;;;;5046718;28;20511;-41
2022/03/26 01:37:44;;;;;;;19.33;11.73;;;9.70;86.30;;;;;;5046675;28;20029;-42
2022/03/26 01:40:10;;;;;;;25.05;13.07;;;9.70;86.30;;;;;;5047927;28;20032;-42
2022/03/26 01:42:35;;;;;;;22.52;12.88;;;9.60;86.30;;;;;;5046514;28;20068;-40
2022/03/26 01:45:01;;;;;;;23.60;13.77;;;9.60;86.30;;;;;;5046538;28;20461;-42
2022/03/26 01:47:26;;;;;;;29.02;13.85;;;9.60;86.20;;;;;;5047484;28;20781;-41
2022/03/26 01:49:52;;;;;;;23.88;13.70;;;9.60;86.30;;;;;;5046290;28;20868;-40
2022/03/26 01:52:18;;;;;;;23.45;12.82;;;9.60;86.30;;;;;;5046775;28;20094;-41
2022/03/26 01:54:43;;;;;;;22.05;12.95;;;9.60;86.40;;;;;;5046475;28;20090;-42
2022/03/26 01:57:13;;;;;;;21.25;12.90;;;9.50;86.30;;;;;;5046323;28;20032;-42
2022/03/26 01:59:40;;;;;;;22.50;12.38;;;9.50;86.40;;;;;;5046973;28;20029;-42
2022/03/26 02:02:06;;;;;;;24.98;12.98;;;9.50;86.40;;;;;;5046094;28;20068;-41
2022/03/26 02:04:34;;;;;;;23.27;13.40;;;9.40;86.50;;;;;;5046887;28;20100;-41
2022/03/26 02:07:02;;;;;;;26.02;15.85;;;9.40;86.60;;;;;;5046150;28;20987;-41
2022/03/26 02:09:33;;;;;;;22.05;13.65;;;9.40;86.60;;;;;;5045958;28;20037;-42
2022/03/26 02:11:59;;;;;;;23.23;13.48;;;9.40;86.60;;;;;;5046984;28;20029;-42
2022/03/26 02:14:24;;;;;;;24.05;13.77;;;9.40;86.80;;;;;;5047068;28;20427;-41
2022/03/26 02:16:50;;;;;;;21.58;13.45;;;9.40;86.70;;;;;;5045782;28;20138;-43
2022/03/26 02:19:16;;;;;;;27.02;14.30;;;9.30;86.60;;;;;;5046867;28;20425;-41
2022/03/26 02:21:42;;;;;;;23.65;13.65;;;9.30;86.60;;;;;;5046082;28;20373;-41
2022/03/26 02:24:08;;;;;;;24.25;12.52;;;9.30;86.70;;;;;;5045821;28;20074;-40
2022/03/26 02:26:35;;;;;;;26.85;14.10;;;9.30;86.70;;;;;;5047363;28;20564;-43
2022/03/26 02:29:07;;;;;;;23.90;13.50;;;9.20;86.80;;;;;;5045774;28;20076;-43
2022/03/26 02:31:33;;;;;;;24.88;13.50;;;9.20;86.80;;;;;;5046026;28;20033;-41
2022/03/26 02:33:58;;;;;;;24.38;12.82;;;9.20;86.80;;;;;;5045756;28;20025;-41
2022/03/26 02:36:27;;;;;;;21.88;13.38;;;9.20;86.90;;;;;;5046564;28;20507;-43
2022/03/26 02:38:52;;;;;;;22.63;13.15;;;9.10;86.90;;;;;;5045152;28;20091;-41
2022/03/26 02:41:18;;;;;;;24.00;13.77;;;9.10;86.90;;;;;;5046305;28;20542;-42
2022/03/26 02:43:43;;;;;;;23.33;13.75;;;9.10;86.90;;;;;;5045463;28;20032;-43
2022/03/26 02:46:09;;;;;;;23.75;13.52;;;9.10;86.90;;;;;;5044912;28;20353;-39
2022/03/26 02:48:35;;;;;;;22.52;14.20;;;9.10;87.00;;;;;;5045983;28;20087;-41
2022/03/26 02:51:01;;;;;;;25.15;13.60;;;9.00;86.90;;;;;;5045403;28;20029;-43
2022/03/26 02:53:27;;;;;;;23.42;13.70;;;9.00;86.90;;;;;;5045049;28;20033;-44
2022/03/26 02:55:52;;;;;;;20.67;13.60;;;9.00;87.00;;;;;;5045759;28;20036;-42
2022/03/26 02:58:18;;;;;;;23.13;13.35;;;9.00;87.10;;;;;;5044774;28;20028;-42
2022/03/26 03:00:44;;;;;;;26.92;14.13;;;9.00;87.10;;;;;;5044847;28;20033;-42
2022/03/26 03:03:10;;;;;;;22.38;13.75;;;8.90;87.20;;;;;;5046051;28;20166;-39
2022/03/26 03:05:35;;;;;;;23.42;14.13;;;8.90;87.30;;;;;;5044905;28;20020;-41
2022/03/26 03:08:02;;;;;;;23.67;14.13;;;8.90;87.30;;;;;;5045211;28;20028;-40
2022/03/26 03:10:28;;;;;;;24.15;13.63;;;8.90;87.30;;;;;;5045235;28;20028;-42
2022/03/26 03:12:54;;;;;;;22.88;14.27;;;8.80;87.30;;;;;;5044486;28;20029;-41
2022/03/26 03:15:20;;;;;;;23.10;13.32;;;8.90;87.30;;;;;;5045474;28;20166;-39
2022/03/26 03:17:47;;;;;;;29.67;14.07;;;8.80;87.20;;;;;;5045480;28;20124;-43
2022/03/26 03:20:14;;;;;;;22.02;13.65;;;8.80;87.20;;;;;;5044744;28;20041;-40
2022/03/26 03:22:41;;;;;;;24.40;13.50;;;8.80;87.20;;;;;;5045557;28;20071;-41
2022/03/26 03:25:08;;;;;;;23.75;13.45;;;8.80;87.20;;;;;;5045542;28;20484;-41
2022/03/26 03:27:34;;;;;;;24.52;13.93;;;8.80;87.20;;;;;;5045081;28;20039;-41
2022/03/26 03:29:59;;;;;;;23.50;14.40;;;8.80;87.20;;;;;;5044459;28;20025;-42
2022/03/26 03:32:26;;;;;;;27.30;14.10;;;8.80;87.20;;;;;;5045294;28;20032;-39
2022/03/26 03:34:51;;;;;;;28.52;14.80;;;8.70;87.10;;;;;;5043994;28;20083;-42
2022/03/26 03:37:17;;;;;;;31.45;16.05;;;8.80;87.20;;;;;;5045004;28;20438;-40
2022/03/26 03:39:43;;;;;;;24.70;14.65;;;8.80;87.10;;;;;;5044516;28;20071;-40
2022/03/26 03:42:09;;;;;;;22.67;13.80;;;8.70;87.10;;;;;;5044671;28;20706;-41
2022/03/26 03:44:35;;;;;;;30.35;17.15;;;8.70;87.10;;;;;;5045286;28;20029;-40
2022/03/26 03:47:00;;;;;;;29.38;15.52;;;8.70;87.30;;;;;;5043993;28;20495;-42
2022/03/26 03:49:26;;;;;;;29.52;16.35;;;8.70;87.20;;;;;;5044855;28;20039;-40
2022/03/26 03:51:52;;;;;;;30.35;15.35;;;8.70;87.20;;;;;;5044430;28;20460;-42
2022/03/26 03:54:18;;;;;;;27.30;15.77;;;8.70;87.20;;;;;;5045161;28;20044;-41
2022/03/26 03:56:43;;;;;;;28.17;15.73;;;8.70;87.40;;;;;;5043608;28;20029;-41
2022/03/26 03:59:09;;;;;;;27.45;14.38;;;8.70;88.00;;;;;;5045056;28;20032;-41
2022/03/26 04:01:34;;;;;;;26.63;15.63;;;8.60;87.30;;;;;;5044277;28;20571;-42
2022/03/26 04:04:00;;;;;;;25.48;14.77;;;8.60;87.30;;;;;;5044605;28;20550;-44
2022/03/26 04:06:26;;;;;;;28.17;16.08;;;8.60;87.50;;;;;;5044779;28;20036;-40
2022/03/26 04:08:51;;;;;;;30.38;16.45;;;8.60;87.60;;;;;;5043677;28;20017;-41
2022/03/26 04:11:17;;;;;;;32.17;17.33;;;8.50;87.80;;;;;;5045088;28;20428;-41
2022/03/26 04:13:43;;;;;;;34.90;18.58;;;8.40;88.00;;;;;;5044156;28;20472;-41
2022/03/26 04:16:08;;;;;;;31.90;18.58;;;8.30;88.30;;;;;;5044235;28;20032;-42
2022/03/26 04:18:37;;;;;;;33.38;18.90;;;8.30;88.50;;;;;;5045249;28;20388;-42
2022/03/26 04:21:02;;;;;;;29.58;17.80;;;8.30;88.80;;;;;;5044603;28;20051;-41
2022/03/26 04:23:28;;;;;;;30.55;18.73;;;8.20;88.90;;;;;;5046526;28;20029;-41
2022/03/26 04:25:53;;;;;;;31.65;18.48;;;8.20;89.00;;;;;;5048553;28;20056;-41
2022/03/26 04:28:19;;;;;;;30.65;19.20;;;8.10;89.00;;;;;;5048355;28;20102;-40
2022/03/26 04:30:44;;;;;;;32.65;18.95;;;8.10;89.20;;;;;;5047437;28;20139;-41
2022/03/26 04:33:10;;;;;;;36.92;19.83;;;8.00;89.30;;;;;;5048860;28;20040;-41
2022/03/26 04:35:35;;;;;;;39.85;22.27;;;8.00;89.40;;;;;;5048836;28;20135;-41
2022/03/26 04:38:02;;;;;;;43.53;23.77;;;8.00;89.70;;;;;;5047597;28;20100;-40
2022/03/26 04:40:28;;;;;;;40.55;21.95;;;8.00;89.80;;;;;;5048589;28;20033;-41
2022/03/26 04:42:55;;;;;;;40.60;23.50;;;8.00;89.90;;;;;;5047979;28;20495;-43
2022/03/26 04:45:20;;;;;;;40.67;23.00;;;8.00;90.00;;;;;;5048028;28;20103;-42
2022/03/26 04:47:46;;;;;;;45.50;25.55;;;8.00;90.00;;;;;;5047601;28;20105;-42
2022/03/26 04:50:12;;;;;;;45.67;25.15;;;7.90;90.40;;;;;;5048115;28;20650;-41
2022/03/26 04:52:38;;;;;;;45.45;26.05;;;7.90;90.20;;;;;;5047447;28;20477;-41
2022/03/26 04:55:08;;;;;;;45.28;26.60;;;7.90;90.30;;;;;;5047584;28;20044;-41
2022/03/26 04:57:44;;;;;;;44.55;25.85;;;7.90;90.40;;;;;;5048184;28;20040;-41
2022/03/26 05:00:12;;;;;;;47.58;27.45;;;7.80;90.50;;;;;;5044598;28;20032;-40
2022/03/26 05:02:39;;;;;;;46.38;26.40;;;7.80;90.60;;;;;;5048292;28;20564;-42
2022/03/26 05:05:05;;;;;;;46.70;27.55;;;7.70;90.70;;;;;;5046244;28;20107;-39
2022/03/26 05:07:46;;;;;;;47.58;27.63;;;7.70;90.80;;;;;;5048058;28;20024;-41
2022/03/26 05:10:21;;;;;;;49.88;28.33;;;7.60;90.90;;;;;;5047740;28;20362;-42
2022/03/26 05:12:48;;;;;;;46.08;27.20;;;7.50;91.00;;;;;;5046821;28;20021;-42
2022/03/26 05:15:14;;;;;;;49.40;28.55;;;7.50;91.10;;;;;;5047826;28;20037;-42
2022/03/26 05:17:40;;;;;;;47.45;27.25;;;7.50;91.20;;;;;;5048420;28;20083;-43
2022/03/26 05:20:08;;;;;;;46.40;27.05;;;7.40;91.20;;;;;;5046673;28;20811;-41
2022/03/26 05:22:34;;;;;;;48.00;27.95;;;7.40;91.30;;;;;;5047706;28;20143;-42
2022/03/26 05:25:00;;;;;;;49.90;27.67;;;7.40;91.40;;;;;;5047255;28;20029;-42
2022/03/26 05:27:26;;;;;;;49.65;28.45;;;7.40;91.50;;;;;;5047271;28;20032;-40
2022/03/26 05:29:52;;;;;;;50.83;28.02;;;7.30;91.60;;;;;;5046728;28;20481;-38
2022/03/26 05:32:17;;;;;;;46.25;28.02;;;7.30;91.60;;;;;;5047717;28;20043;-42
2022/03/26 05:34:44;;;;;;;42.88;25.85;;;7.30;91.60;;;;;;5045604;28;20384;-43
2022/03/26 05:37:10;;;;;;;46.83;26.13;;;7.30;91.60;;;;;;5046913;28;20025;-43
2022/03/26 05:39:35;;;;;;;42.88;26.33;;;7.30;91.70;;;;;;5047306;28;20017;-42
2022/03/26 05:42:01;;;;;;;44.80;26.13;;;7.30;91.70;;;;;;5046212;28;20194;-42
2022/03/26 05:44:26;;;;;;;45.03;26.02;;;7.30;91.60;;;;;;5047292;28;20693;-42
2022/03/26 05:46:52;;;;;;;41.55;25.27;;;7.30;91.70;;;;;;5046865;28;20476;-42
2022/03/26 05:49:17;;;;;;;46.33;25.95;;;7.30;91.70;;;;;;5046019;28;20021;-41
2022/03/26 05:51:44;;;;;;;47.10;26.40;;;7.30;91.70;;;;;;5046417;28;20821;-39
2022/03/26 05:54:10;;;;;;;44.60;25.95;;;7.30;91.80;;;;;;5046591;28;20684;-42
2022/03/26 05:56:36;;;;;;;46.28;26.65;;;7.30;91.80;;;;;;5047004;28;20037;-39
2022/03/26 05:59:06;;;;;;;45.03;26.95;;;7.30;91.90;;;;;;5046409;28;20797;-40
2022/03/26 06:01:32;;;;;;;46.55;26.48;;;7.30;92.00;;;;;;5046314;28;20606;-41
2022/03/26 06:03:58;;;;;;;43.95;26.58;;;7.30;92.10;;;;;;5047109;28;20362;-41
2022/03/26 06:06:24;;;;;;;46.55;27.65;;;7.30;92.20;;;;;;5047505;28;20123;-41
2022/03/26 06:08:50;;;;;;;48.88;27.50;;;7.30;92.20;;;;;;5045958;28;20024;-40
2022/03/26 06:11:16;;;;;;;45.38;26.30;;;7.30;92.60;;;;;;5046948;28;20021;-42
2022/03/26 06:13:41;;;;;;;47.28;27.55;;;7.30;92.40;;;;;;5046592;28;20025;-39
2022/03/26 06:16:07;;;;;;;49.42;28.77;;;7.30;92.50;;;;;;5046029;28;20040;-41
2022/03/26 06:18:32;;;;;;;46.53;28.15;;;7.30;92.50;;;;;;5046908;28;20598;-41
2022/03/26 06:21:00;;;;;;;47.72;27.98;;;7.30;92.60;;;;;;5046531;28;20083;-41
2022/03/26 06:23:25;;;;;;;46.92;27.45;;;7.30;92.70;;;;;;5045782;28;20558;-42
2022/03/26 06:25:51;;;;;;;48.03;27.02;;;7.40;92.80;;;;;;5045737;28;20029;-41
2022/03/26 06:28:19;;;;;;;48.92;27.25;;;7.40;92.80;;;;;;5046745;28;20048;-40
2022/03/26 06:30:46;;;;;;;46.88;27.00;;;7.40;92.80;;;;;;5045346;28;20044;-42
2022/03/26 06:33:12;;;;;;;46.63;25.80;;;7.40;92.80;;;;;;5046521;28;20075;-39
2022/03/26 06:35:38;;;;;;;45.30;25.80;;;7.40;92.80;;;;;;5046830;28;20040;-39
2022/03/26 06:38:03;;;;;;;42.72;26.00;;;7.50;92.80;;;;;;5044665;28;20024;-40
2022/03/26 06:40:32;;;;;;;50.33;27.10;;;7.50;92.80;;;;;;5046353;28;20526;-42
2022/03/26 06:42:57;;;;;;;41.40;25.67;;;7.60;92.90;;;;;;5045867;28;20086;-41
2022/03/26 06:45:23;;;;;;;46.13;27.50;;;7.60;92.90;;;;;;5045244;28;20033;-40
2022/03/26 06:47:48;;;;;;;39.85;24.85;;;7.60;92.80;;;;;;5044619;28;20067;-42
2022/03/26 06:50:14;;;;;;;44.22;24.20;;;7.70;92.90;;;;;;5045403;28;20036;-41
2022/03/26 06:52:40;;;;;;;45.25;24.95;;;7.70;92.80;;;;;;5045964;28;20279;-42
2022/03/26 06:55:06;;;;;;;40.40;24.10;;;7.80;92.90;;;;;;5045052;28;20048;-41
2022/03/26 06:57:32;;;;;;;42.70;25.80;;;7.80;92.90;;;;;;5045102;28;20100;-38
2022/03/26 07:00:00;;;;;;;43.83;24.30;;;7.90;92.90;;;;;;5045633;28;20859;-42
2022/03/26 07:02:26;;;;;;;40.42;24.15;;;7.90;92.90;;;;;;5045930;28;20036;-40
2022/03/26 07:04:51;;;;;;;39.72;23.20;;;7.90;92.90;;;;;;5044747;28;20491;-40
2022/03/26 07:07:17;;;;;;;38.20;23.15;;;7.90;92.90;;;;;;5045666;28;20025;-39
2022/03/26 07:09:42;;;;;;;38.20;22.48;;;8.00;92.90;;;;;;5045309;28;20243;-40
2022/03/26 07:12:08;;;;;;;39.60;22.02;;;8.00;92.90;;;;;;5045453;28;20041;-40
2022/03/26 07:14:34;;;;;;;34.55;22.52;;;8.00;92.90;;;;;;5045404;28;20032;-42
2022/03/26 07:17:00;;;;;;;34.05;20.98;;;8.00;92.90;;;;;;5045433;28;20481;-41
2022/03/26 07:19:25;;;;;;;38.53;22.88;;;8.10;92.90;;;;;;5044777;28;20087;-41
2022/03/26 07:21:51;;;;;;;37.70;21.52;;;8.10;92.90;;;;;;5045278;28;20045;-42
2022/03/26 07:24:16;;;;;;;33.88;21.08;;;8.10;92.90;;;;;;5045860;28;20037;-40
2022/03/26 07:26:42;;;;;;;34.50;21.27;;;8.20;92.90;;;;;;5044051;28;20603;-40
2022/03/26 07:29:08;;;;;;;34.13;19.92;;;8.30;92.80;;;;;;5044976;28;20036;-41
2022/03/26 07:31:34;;;;;;;32.70;19.55;;;8.30;92.80;;;;;;5045297;28;20039;-42
2022/03/26 07:33:59;;;;;;;35.13;20.73;;;8.40;92.80;;;;;;5044318;28;20025;-42
2022/03/26 07:36:25;;;;;;;36.38;20.65;;;8.50;92.80;;;;;;5045643;28;20025;-41
2022/03/26 07:38:51;;;;;;;34.95;19.75;;;8.50;92.70;;;;;;5044619;28;20020;-39
2022/03/26 07:41:16;;;;;;;29.38;18.83;;;8.60;92.70;;;;;;5044367;28;20036;-42
2022/03/26 07:43:42;;;;;;;32.50;19.77;;;8.70;92.80;;;;;;5044622;28;20686;-42
2022/03/26 07:46:08;;;;;;;29.50;18.08;;;8.80;92.80;;;;;;5045046;28;20255;-38
2022/03/26 07:48:33;;;;;;;33.28;19.08;;;8.80;92.70;;;;;;5044323;28;20390;-40
2022/03/26 07:50:59;;;;;;;30.05;18.75;;;8.90;92.70;;;;;;5044048;28;20036;-40
2022/03/26 07:53:27;;;;;;;31.55;19.77;;;9.00;92.70;;;;;;5045449;28;20031;-41
2022/03/26 07:55:53;;;;;;;31.33;19.45;;;9.10;92.90;;;;;;5043972;28;20107;-44
2022/03/26 07:58:21;;;;;;;33.08;20.00;;;9.20;92.70;;;;;;5044615;28;20183;-41
2022/03/26 08:00:48;;;;;;;33.58;20.13;;;9.30;92.70;;;;;;5043745;28;20040;-40
2022/03/26 08:03:14;;;;;;;30.90;19.77;;;9.40;92.70;;;;;;5045223;28;20021;-42
2022/03/26 08:05:39;;;;;;;35.45;19.92;;;9.50;92.70;;;;;;5044690;28;20032;-41
2022/03/26 08:08:05;;;;;;;32.13;20.30;;;9.60;92.70;;;;;;5043736;28;20029;-43
2022/03/26 08:10:31;;;;;;;32.80;20.00;;;9.60;93.00;;;;;;5045223;28;20750;-41
2022/03/26 08:12:56;;;;;;;30.77;19.58;;;9.70;92.70;;;;;;5044621;28;20469;-40
2022/03/26 08:15:22;;;;;;;31.85;19.83;;;9.80;92.80;;;;;;5044029;28;20029;-41
2022/03/26 08:17:48;;;;;;;32.38;19.25;;;9.90;92.80;;;;;;5044478;28;20021;-40
2022/03/26 08:20:14;;;;;;;32.50;19.77;;;9.90;92.80;;;;;;5044467;28;20033;-42
2022/03/26 08:22:41;;;;;;;35.03;21.17;;;10.00;92.80;;;;;;5044035;28;20033;-42
2022/03/26 08:25:09;;;;;;;35.50;20.33;;;10.10;92.80;;;;;;5045127;28;20025;-43
2022/03/26 08:27:36;;;;;;;37.67;21.80;;;10.20;92.90;;;;;;5044460;28;20028;-41
2022/03/26 08:30:04;;;;;;;32.47;20.00;;;10.30;92.90;;;;;;5043767;28;20025;-41
2022/03/26 08:32:29;;;;;;;31.63;20.33;;;10.40;92.90;;;;;;5044910;28;20049;-42
2022/03/26 08:34:55;;;;;;;35.15;20.42;;;10.40;92.80;;;;;;5044304;28;20135;-41
2022/03/26 08:37:20;;;;;;;31.02;18.88;;;10.50;92.90;;;;;;5043614;28;20079;-42
2022/03/26 08:39:46;;;;;;;27.25;17.55;;;10.60;92.90;;;;;;5044087;28;20029;-39
2022/03/26 08:42:11;;;;;;;30.95;19.20;;;10.70;92.90;;;;;;5044480;28;20025;-42
2022/03/26 08:44:37;;;;;;;30.52;18.63;;;10.70;92.90;;;;;;5043698;28;20674;-41
2022/03/26 08:47:05;;;;;;;30.60;18.20;;;10.80;92.90;;;;;;5043757;28;20476;-41
2022/03/26 08:49:32;;;;;;;27.17;17.23;;;10.90;92.90;;;;;;5044969;28;20162;-42
2022/03/26 08:51:57;;;;;;;29.77;17.33;;;11.00;92.90;;;;;;5043345;28;20025;-40
2022/03/26 08:54:23;;;;;;;26.33;16.67;;;11.10;93.20;;;;;;5044744;28;20072;-42
2022/03/26 08:56:49;;;;;;;24.75;14.63;;;11.30;92.90;;;;;;5043492;28;20056;-43
2022/03/26 08:59:14;;;;;;;23.52;14.85;;;11.40;92.80;;;;;;5044133;28;20384;-42
2022/03/26 09:01:40;;;;;;;24.55;14.52;;;11.60;92.80;;;;;;5044893;28;20477;-41
2022/03/26 09:04:06;;;;;;;21.67;13.40;;;11.80;92.70;;;;;;5043835;28;20510;-42
2022/03/26 09:06:31;;;;;;;21.58;14.18;;;12.00;92.60;;;;;;5044250;28;20021;-41
2022/03/26 09:08:58;;;;;;;26.13;15.65;;;12.10;92.50;;;;;;5044142;28;20021;-43
2022/03/26 09:11:24;;;;;;;23.10;14.60;;;12.30;92.50;;;;;;5047112;28;20377;-42
2022/03/26 09:13:49;;;;;;;21.63;13.77;;;12.40;92.40;;;;;;5047380;28;20021;-41
2022/03/26 09:16:15;;;;;;;21.85;13.48;;;12.50;92.30;;;;;;5047637;28;20546;-42
2022/03/26 09:18:40;;;;;;;18.73;11.55;;;12.60;92.30;;;;;;5046831;28;20346;-40
2022/03/26 09:21:06;;;;;;;18.52;11.27;;;12.70;92.20;;;;;;5047891;28;20036;-41
2022/03/26 09:23:32;;;;;;;17.40;11.18;;;12.70;92.10;;;;;;5047936;28;20025;-43
2022/03/26 09:25:59;;;;;;;16.30;9.68;;;12.80;92.10;;;;;;5046874;28;20036;-41
2022/03/26 09:28:25;;;;;;;16.33;10.80;;;12.90;91.90;;;;;;5047023;28;20118;-42
2022/03/26 09:30:51;;;;;;;18.83;10.57;;;13.00;91.90;;;;;;5047440;28;20060;-42
2022/03/26 09:33:16;;;;;;;16.02;10.10;;;13.00;91.80;;;;;;5046521;28;20097;-42
2022/03/26 09:35:42;;;;;;;19.00;11.27;;;13.10;91.80;;;;;;5047576;28;20045;-42
2022/03/26 09:38:07;;;;;;;19.50;11.85;;;13.10;91.60;;;;;;5047347;28;20036;-40
2022/03/26 09:40:34;;;;;;;15.25;10.45;;;13.20;91.50;;;;;;5046789;28;20052;-41
2022/03/26 09:43:01;;;;;;;18.65;12.15;;;13.30;91.40;;;;;;5046796;28;20994;-43
2022/03/26 09:45:27;;;;;;;17.00;11.15;;;13.40;91.30;;;;;;5047605;28;20045;-41
2022/03/26 09:47:53;;;;;;;16.95;11.48;;;13.40;91.20;;;;;;5046357;28;20032;-42
2022/03/26 09:50:21;;;;;;;20.30;11.43;;;13.50;91.10;;;;;;5047221;28;20037;-41
2022/03/26 09:52:48;;;;;;;15.02;10.63;;;13.60;91.00;;;;;;5046382;28;20064;-41
2022/03/26 09:55:17;;;;;;;14.70;10.90;;;13.70;91.00;;;;;;5046402;28;20048;-41
2022/03/26 09:57:42;;;;;;;15.00;9.50;;;13.80;91.00;;;;;;5046637;28;20037;-42
2022/03/26 10:00:09;;;;;;;15.45;10.00;;;13.80;90.90;;;;;;5046441;28;20040;-38
2022/03/26 10:02:35;;;;;;;11.98;9.23;;;13.90;90.80;;;;;;5047172;28;20500;-40
2022/03/26 10:05:02;;;;;;;14.32;9.55;;;14.00;90.70;;;;;;5046326;28;20021;-42
2022/03/26 10:07:29;;;;;;;13.35;9.32;;;14.10;90.60;;;;;;5046154;28;20025;-42
2022/03/26 10:09:55;;;;;;;14.15;10.15;;;14.10;90.50;;;;;;5046577;28;20021;-40
2022/03/26 10:12:22;;;;;;;16.77;10.50;;;14.20;90.40;;;;;;5046733;28;20400;-40
2022/03/26 10:14:56;;;;;;;14.35;10.50;;;14.20;90.30;;;;;;5045616;28;20025;-38
2022/03/26 10:17:31;;;;;;;13.50;8.93;;;14.30;90.20;;;;;;5046615;28;20029;-39
2022/03/26 10:19:58;;;;;;;14.05;8.80;;;14.30;90.00;;;;;;5046077;28;20029;-42
2022/03/26 10:22:25;;;;;;;12.57;9.07;;;14.40;89.80;;;;;;5046100;28;20120;-41
2022/03/26 10:24:51;;;;;;;10.60;7.70;;;14.50;89.50;;;;;;5046154;28;20036;-40
2022/03/26 10:27:17;;;;;;;10.27;7.22;;;14.50;89.20;;;;;;5046505;28;20036;-41
2022/03/26 10:29:49;;;;;;;12.23;9.50;;;14.50;89.00;;;;;;5045578;28;20021;-41
2022/03/26 10:32:40;;;;;;;11.10;8.98;;;14.60;88.60;;;;;;5047056;28;20028;-41
2022/03/26 10:35:11;;;;;;;12.73;8.55;;;14.60;87.90;;;;;;5046139;28;20020;-38
2022/03/26 10:38:01;;;;;;;13.95;8.07;;;14.70;87.80;;;;;;5045917;28;20159;-41
2022/03/26 10:40:36;;;;;;;11.90;7.55;;;14.70;87.60;;;;;;5046383;28;20029;-42
2022/03/26 10:43:13;;;;;;;8.20;6.32;;;14.80;87.60;;;;;;5045853;28;20151;-40
2022/03/26 10:45:52;;;;;;;10.35;6.82;;;14.80;87.60;;;;;;5045749;28;20036;-43
2022/03/26 10:48:29;;;;;;;11.32;6.70;;;14.80;87.40;;;;;;5046365;28;20435;-42
2022/03/26 10:50:57;;;;;;;8.25;6.95;;;14.90;87.40;;;;;;5044725;28;20036;-41
2022/03/26 10:53:31;;;;;;;12.70;7.03;;;14.90;87.10;;;;;;5046003;28;20071;-44
2022/03/26 10:55:57;;;;;;;10.43;7.80;;;15.00;86.90;;;;;;5046283;28;20037;-42
2022/03/26 10:58:23;;;;;;;10.50;7.03;;;15.00;86.00;;;;;;5045523;28;20070;-41
2022/03/26 11:00:49;;;;;;;11.25;7.38;;;15.10;85.90;;;;;;5045361;28;20136;-41
2022/03/26 11:03:17;;;;;;;11.57;6.90;;;15.10;85.30;;;;;;5046058;28;20025;-41
2022/03/26 11:05:44;;;;;;;11.38;6.20;;;15.20;84.70;;;;;;5044181;28;20020;-41
2022/03/26 11:08:12;;;;;;;6.70;6.00;;;15.30;84.30;;;;;;5045752;28;20040;-41
2022/03/26 11:10:38;;;;;;;8.93;5.40;;;15.30;84.30;;;;;;5045002;28;20091;-41
2022/03/26 11:13:08;;;;;;;8.93;5.40;;;15.30;84.10;;;;;;5045136;28;20605;-40
2022/03/26 11:15:40;;;;;;;10.35;5.85;;;15.30;83.70;;;;;;5045669;28;20045;-40
2022/03/26 11:18:37;;;;;;;7.22;5.60;;;15.40;83.70;;;;;;5044402;28;20448;-41
2022/03/26 11:21:44;;;;;;;10.45;5.63;;;15.40;83.50;;;;;;5044804;28;20051;-41
2022/03/26 11:24:30;;;;;;;8.60;5.47;;;15.50;83.10;;;;;;5045754;28;20036;-42
2022/03/26 11:27:32;;;;;;;9.07;5.53;;;15.50;83.00;;;;;;5044850;28;20041;-42
2022/03/26 11:30:22;;;;;;;13.98;8.20;;;15.50;82.60;;;;;;5025375;28;20105;-42
2022/03/26 11:32:51;;;;;;;14.40;8.27;;;15.60;81.80;;;;;;5042207;28;20032;-42
2022/03/26 11:35:18;;;;;;;17.85;9.77;;;15.70;81.70;;;;;;5045642;28;20028;-41
2022/03/26 11:37:55;;;;;;;17.77;10.00;;;15.80;80.10;;;;;;5044263;28;20115;-41
2022/03/26 11:40:41;;;;;;;18.30;9.45;;;15.80;79.60;;;;;;5025309;28;20038;-42
2022/03/26 11:43:06;;;;;;;16.15;9.18;;;15.90;79.50;;;;;;5042941;28;20029;-41
2022/03/26 11:51:23;;;;;;;13.98;9.32;;;16.00;78.30;;;;;;5045377;28;20076;-43
2022/03/26 11:53:55;;;;;;;16.92;10.30;;;16.10;77.90;;;;;;5043375;28;20385;-41
2022/03/26 11:56:22;;;;;;;;;;;16.10;77.50;;;;;;5045536;28;20044;-41
2022/03/26 11:59:17;;;;;;;17.42;10.57;;;16.10;77.00;;;;;;5044704;28;19912;-42
2022/03/26 12:01:45;;;;;;;13.25;8.70;;;16.20;76.70;;;;;;5041454;28;20077;-41
2022/03/26 12:04:15;;;;;;;13.98;9.18;;;16.20;76.80;;;;;;5044685;28;20032;-43
2022/03/26 12:06:51;;;;;;;13.45;9.13;;;16.20;77.50;;;;;;5044631;28;20033;-42
2022/03/26 12:09:33;;;;;;;13.40;9.18;;;16.30;76.60;;;;;;5043816;28;20055;-41
2022/03/26 12:12:10;;;;;;;11.55;7.40;;;16.30;75.70;;;;;;5044595;28;20053;-41
2022/03/26 12:15:01;;;;;;;9.90;6.82;;;16.30;76.10;;;;;;5040622;28;20037;-40
2022/03/26 12:17:46;;;;;;;8.93;6.55;;;16.40;76.10;;;;;;5044907;28;20075;-43
2022/03/26 12:20:18;;;;;;;17.23;9.57;;;16.40;76.10;;;;;;5044065;28;20373;-41
2022/03/26 12:22:44;;;;;;;12.43;8.80;;;16.50;75.40;;;;;;5043708;28;20045;-42
2022/03/26 12:25:11;;;;;;;11.80;8.45;;;16.50;75.00;;;;;;5044895;28;20070;-41
2022/03/26 12:27:40;;;;;;;14.20;7.30;;;16.60;75.70;;;;;;5044541;28;20104;-42
2022/03/26 12:30:07;;;;;;;13.82;8.30;;;16.60;74.80;;;;;;5043848;28;20025;-41
2022/03/26 12:32:34;;;;;;;13.77;7.90;;;16.70;74.00;;;;;;5044564;28;20040;-42
2022/03/26 12:35:05;;;;;;;12.45;8.02;;;16.80;74.00;;;;;;5043843;28;20036;-42
2022/03/26 12:37:31;;;;;;;13.68;8.15;;;16.90;73.70;;;;;;5044808;28;20502;-42
2022/03/26 12:39:58;;;;;;;11.48;7.43;;;16.90;73.70;;;;;;5043793;28;20566;-42
2022/03/26 12:42:25;;;;;;;12.05;7.85;;;16.90;73.80;;;;;;5044078;28;20056;-41